Time;durP1;ratioP1;P1;durP2;ratioP2;P2;SDS_P1;SDS_P2;PMS_P1;PMS_P2;Temp;Humidity;BMP_temperature;BMP_pressure;BME280_temperature;BME280_humidity;BME280_pressure;Samples;Min_cycle;Max_cycle;Signal;HPM_P1;HPM_P2
2022/06/24 00:02:24;;;;;;;1.48;1.37;;;19.80;54.40;;;;;;637997;224;26516;-69
2022/06/24 00:04:52;;;;;;;1.20;1.20;;;19.80;54.40;;;;;;638056;224;26519;-69
2022/06/24 00:07:20;;;;;;;1.30;1.30;;;19.80;54.40;;;;;;638083;224;26537;-70
2022/06/24 00:09:47;;;;;;;1.83;1.25;;;19.80;54.40;;;;;;638120;224;26771;-69
2022/06/24 00:12:14;;;;;;;1.58;1.35;;;19.70;54.30;;;;;;638134;224;26488;-69
2022/06/24 00:14:41;;;;;;;1.40;1.33;;;19.70;54.60;;;;;;638092;224;26523;-69
2022/06/24 00:17:09;;;;;;;1.37;1.37;;;19.60;54.40;;;;;;638056;224;26534;-69
2022/06/24 00:19:49;;;;;;;1.55;1.45;;;19.70;54.60;;;;;;638094;224;26588;-69
2022/06/24 00:22:16;;;;;;;1.30;1.30;;;19.60;54.50;;;;;;638101;224;26496;-69
2022/06/24 00:24:43;;;;;;;1.33;1.30;;;19.60;54.50;;;;;;637693;223;27326;-69
2022/06/24 00:27:18;;;;;;;1.15;1.15;;;19.70;54.50;;;;;;637404;224;26562;-70
2022/06/24 00:29:47;;;;;;;1.40;1.30;;;19.70;54.40;;;;;;637429;224;26620;-71
2022/06/24 00:32:14;;;;;;;2.30;1.42;;;19.70;54.30;;;;;;637463;224;26539;-70
2022/06/24 00:34:41;;;;;;;1.40;1.40;;;19.70;54.30;;;;;;637413;224;26531;-70
2022/06/24 00:37:20;;;;;;;1.70;1.60;;;19.70;54.60;;;;;;637505;225;26543;-70
2022/06/24 00:39:48;;;;;;;1.60;1.50;;;19.60;54.60;;;;;;637464;224;26832;-70
2022/06/24 00:42:15;;;;;;;1.62;1.52;;;19.60;54.40;;;;;;637456;224;26550;-69
2022/06/24 00:44:43;;;;;;;1.30;1.30;;;19.60;54.70;;;;;;637397;224;27021;-69
2022/06/24 00:47:11;;;;;;;1.35;1.33;;;19.70;54.00;;;;;;637323;225;26571;-69
2022/06/24 00:49:38;;;;;;;1.65;1.55;;;19.70;54.10;;;;;;637728;225;26595;-69
2022/06/24 00:52:07;;;;;;;1.55;1.45;;;19.70;54.40;;;;;;638994;225;26580;-70
2022/06/24 00:54:34;;;;;;;2.05;1.42;;;19.70;54.00;;;;;;638881;225;26569;-70
2022/06/24 00:57:01;;;;;;;1.40;1.40;;;19.60;54.60;;;;;;639008;225;26831;-69
2022/06/24 00:59:28;;;;;;;1.25;1.25;;;19.60;54.40;;;;;;638988;223;26583;-70
2022/06/24 01:01:55;;;;;;;1.60;1.50;;;19.60;54.20;;;;;;640802;224;26795;-70
2022/06/24 01:04:23;;;;;;;1.83;1.67;;;19.50;54.40;;;;;;640175;225;26476;-69
2022/06/24 01:06:51;;;;;;;1.48;1.37;;;19.50;54.60;;;;;;638875;224;26491;-69
2022/06/24 01:09:20;;;;;;;1.70;1.60;;;19.50;54.80;;;;;;639819;222;26589;-70
2022/06/24 01:11:47;;;;;;;1.80;1.70;;;19.40;54.60;;;;;;639585;223;26517;-70
2022/06/24 01:14:15;;;;;;;1.80;1.70;;;19.40;54.60;;;;;;639641;224;26482;-70
2022/06/24 01:16:42;;;;;;;1.73;1.62;;;19.40;54.50;;;;;;639623;225;26577;-70
2022/06/24 01:19:10;;;;;;;1.62;1.52;;;19.40;54.90;;;;;;639345;224;26527;-69
2022/06/24 01:21:52;;;;;;;1.70;1.60;;;19.40;54.80;;;;;;639267;225;26734;-70
2022/06/24 01:24:20;;;;;;;1.80;1.70;;;19.30;54.70;;;;;;639376;225;26482;-70
2022/06/24 01:26:47;;;;;;;1.60;1.50;;;19.30;54.80;;;;;;639298;225;26495;-70
2022/06/24 01:29:15;;;;;;;1.65;1.23;;;19.40;55.20;;;;;;639282;222;26593;-69
2022/06/24 01:31:42;;;;;;;1.67;1.58;;;19.30;54.70;;;;;;639252;224;26526;-74
2022/06/24 01:34:09;;;;;;;2.03;1.90;;;19.30;54.90;;;;;;639359;225;26475;-74
2022/06/24 01:36:36;;;;;;;1.73;1.62;;;19.30;54.90;;;;;;639152;225;26787;-74
2022/06/24 01:39:04;;;;;;;1.77;1.42;;;19.20;54.90;;;;;;638863;224;26583;-73
2022/06/24 01:41:31;;;;;;;1.73;1.62;;;19.20;54.90;;;;;;638953;224;26777;-74
2022/06/24 01:43:58;;;;;;;1.60;1.50;;;19.20;54.90;;;;;;638919;219;26555;-75
2022/06/24 01:46:25;;;;;;;2.90;1.85;;;19.30;54.90;;;;;;638971;225;26805;-74
2022/06/24 01:48:52;;;;;;;1.80;1.70;;;19.20;55.30;;;;;;644277;223;26583;-74
2022/06/24 01:51:20;;;;;;;1.55;1.50;;;19.20;54.90;;;;;;646127;222;27159;-74
2022/06/24 01:53:48;;;;;;;1.73;1.62;;;19.20;55.00;;;;;;646033;223;26586;-72
2022/06/24 01:56:15;;;;;;;2.17;2.08;;;19.10;54.80;;;;;;646127;223;26582;-72
2022/06/24 01:58:43;;;;;;;1.90;1.80;;;19.10;54.80;;;;;;646032;222;26588;-73
2022/06/24 02:01:12;;;;;;;1.77;1.67;;;19.10;54.80;;;;;;646051;223;26571;-73
2022/06/24 02:03:39;;;;;;;1.80;1.70;;;19.10;54.80;;;;;;645950;223;26568;-73
2022/06/24 02:06:06;;;;;;;1.87;1.77;;;19.10;54.70;;;;;;646120;223;26567;-73
2022/06/24 02:08:34;;;;;;;1.60;1.50;;;19.10;54.90;;;;;;646076;221;26618;-74
2022/06/24 02:13:34;;;;;;;1.85;1.75;;;19.10;55.00;;;;;;647876;222;26901;-73
2022/06/24 02:16:01;;;;;;;1.95;1.85;;;19.10;54.90;;;;;;647336;222;26514;-73
2022/06/24 02:18:28;;;;;;;1.98;1.75;;;19.10;54.70;;;;;;647018;221;27303;-73
2022/06/24 02:20:55;;;;;;;1.85;1.73;;;19.10;54.80;;;;;;646861;222;26560;-73
2022/06/24 02:23:23;;;;;;;1.98;1.70;;;19.10;54.80;;;;;;646730;222;26773;-73
2022/06/24 02:25:50;;;;;;;1.95;1.85;;;19.20;54.80;;;;;;646763;222;26509;-73
2022/06/24 02:28:17;;;;;;;2.10;2.00;;;19.10;54.60;;;;;;646658;221;27085;-73
2022/06/24 02:30:44;;;;;;;1.90;1.52;;;19.20;54.70;;;;;;646541;222;26760;-73
2022/06/24 02:33:12;;;;;;;2.15;1.95;;;19.10;54.60;;;;;;646424;222;26575;-73
2022/06/24 02:35:39;;;;;;;1.52;1.42;;;19.10;54.70;;;;;;646356;222;26833;-73
2022/06/24 02:38:06;;;;;;;2.00;1.90;;;19.10;54.60;;;;;;646330;222;26506;-73
2022/06/24 02:43:06;;;;;;;3.28;2.00;;;19.10;54.70;;;;;;646459;222;26570;-73
2022/06/24 02:45:35;;;;;;;1.65;1.65;;;19.10;54.80;;;;;;646038;222;26761;-73
2022/06/24 02:48:03;;;;;;;2.10;2.00;;;19.10;54.80;;;;;;643143;222;26560;-73
2022/06/24 02:50:30;;;;;;;2.37;2.20;;;19.10;54.70;;;;;;638448;223;26546;-73
2022/06/24 02:52:57;;;;;;;2.08;1.95;;;19.10;55.00;;;;;;638514;224;26476;-72
2022/06/24 02:55:24;;;;;;;1.87;1.77;;;19.10;54.80;;;;;;638563;224;26519;-72
2022/06/24 02:57:52;;;;;;;2.00;1.80;;;19.00;55.00;;;;;;638576;224;26511;-72
2022/06/24 03:00:20;;;;;;;2.12;1.98;;;19.00;55.30;;;;;;638586;225;26555;-73
2022/06/24 03:02:47;;;;;;;2.10;2.00;;;19.00;55.30;;;;;;638608;225;26756;-73
2022/06/24 03:05:14;;;;;;;1.95;1.85;;;19.00;55.10;;;;;;638587;225;26519;-73
2022/06/24 03:07:41;;;;;;;2.03;1.92;;;19.00;55.20;;;;;;638552;224;26753;-73
2022/06/24 03:10:09;;;;;;;1.77;1.70;;;19.00;55.10;;;;;;638575;223;26563;-72
2022/06/24 03:12:37;;;;;;;2.20;2.10;;;19.00;55.30;;;;;;638580;225;26512;-73
2022/06/24 03:15:06;;;;;;;1.83;1.73;;;19.00;55.60;;;;;;638624;224;26589;-73
2022/06/24 03:17:33;;;;;;;2.00;1.90;;;19.00;55.50;;;;;;638601;225;26522;-73
2022/06/24 03:20:00;;;;;;;1.92;1.83;;;19.00;55.30;;;;;;638564;224;26767;-73
2022/06/24 03:22:27;;;;;;;3.20;2.15;;;19.00;55.30;;;;;;638580;224;26527;-73
2022/06/24 03:24:54;;;;;;;1.95;1.85;;;19.00;55.50;;;;;;640427;223;26831;-73
2022/06/24 03:27:22;;;;;;;2.00;1.90;;;18.90;55.50;;;;;;639813;223;26571;-73
2022/06/24 03:29:50;;;;;;;2.20;2.10;;;18.90;55.50;;;;;;639524;224;26561;-73
2022/06/24 03:32:17;;;;;;;2.33;2.12;;;18.90;55.50;;;;;;639404;224;26760;-73
2022/06/24 03:34:45;;;;;;;2.17;2.08;;;18.90;55.60;;;;;;639230;225;26531;-73
2022/06/24 03:37:12;;;;;;;2.30;2.10;;;18.90;55.50;;;;;;639190;225;26836;-73
2022/06/24 03:39:39;;;;;;;1.83;1.73;;;19.00;55.80;;;;;;639193;224;26578;-73
2022/06/24 03:42:06;;;;;;;2.50;2.30;;;19.00;55.40;;;;;;638971;223;26783;-73
2022/06/24 03:44:33;;;;;;;2.35;2.15;;;19.00;55.20;;;;;;638862;225;26562;-73
2022/06/24 03:47:01;;;;;;;2.95;2.10;;;19.10;55.10;;;;;;638904;224;26786;-73
2022/06/24 03:49:28;;;;;;;2.72;2.10;;;19.10;55.70;;;;;;651044;218;26537;-73
2022/06/24 03:51:55;;;;;;;1.77;1.67;;;19.10;55.20;;;;;;651114;219;27178;-73
2022/06/24 03:54:22;;;;;;;2.50;2.03;;;19.10;55.10;;;;;;650803;221;26492;-73
2022/06/24 03:56:49;;;;;;;2.15;1.83;;;19.10;54.90;;;;;;651152;221;26754;-73
2022/06/24 03:59:17;;;;;;;2.12;2.03;;;19.20;55.10;;;;;;650997;218;26529;-73
2022/06/24 04:01:44;;;;;;;2.50;2.17;;;19.20;54.90;;;;;;650770;219;26747;-73
2022/06/24 04:04:11;;;;;;;2.15;2.05;;;19.30;54.70;;;;;;650816;221;26626;-73
2022/06/24 04:06:38;;;;;;;2.55;2.33;;;19.30;54.50;;;;;;650794;221;26791;-73
2022/06/24 04:09:06;;;;;;;2.00;1.90;;;19.50;54.40;;;;;;650705;217;26542;-73
2022/06/24 04:11:34;;;;;;;2.00;1.90;;;19.50;54.30;;;;;;650821;221;26583;-73
2022/06/24 04:14:02;;;;;;;1.80;1.70;;;19.60;54.20;;;;;;650795;221;26549;-73
2022/06/24 04:16:30;;;;;;;2.25;2.05;;;19.50;54.40;;;;;;650637;221;26586;-73
2022/06/24 04:18:58;;;;;;;1.95;1.85;;;19.60;54.20;;;;;;650726;221;26636;-73
2022/06/24 04:21:26;;;;;;;2.10;2.00;;;19.60;54.10;;;;;;650777;221;26760;-72
2022/06/24 04:23:52;;;;;;;2.67;2.17;;;19.60;53.80;;;;;;650740;221;26560;-72
2022/06/24 04:26:20;;;;;;;2.30;2.20;;;19.70;54.10;;;;;;650828;219;26751;-73
2022/06/24 04:28:47;;;;;;;2.53;2.33;;;19.80;54.10;;;;;;650549;219;26525;-73
2022/06/24 04:31:15;;;;;;;2.28;1.95;;;19.90;54.30;;;;;;650799;221;26835;-74
2022/06/24 04:33:42;;;;;;;3.08;2.10;;;19.90;54.20;;;;;;650797;221;26787;-73
2022/06/24 04:36:13;;;;;;;2.53;2.10;;;19.90;53.80;;;;;;652476;219;26551;-73
2022/06/24 04:38:42;;;;;;;2.28;2.10;;;20.00;53.80;;;;;;651250;216;26929;-73
2022/06/24 04:41:13;;;;;;;2.50;2.30;;;20.00;53.80;;;;;;651846;221;26516;-73
2022/06/24 04:43:41;;;;;;;2.40;2.30;;;20.10;53.60;;;;;;651732;221;26504;-73
2022/06/24 04:46:08;;;;;;;2.37;2.25;;;20.20;53.80;;;;;;651460;221;26556;-73
2022/06/24 04:48:36;;;;;;;2.33;2.20;;;20.20;53.80;;;;;;643698;221;26589;-74
2022/06/24 04:51:02;;;;;;;2.50;2.05;;;20.30;53.40;;;;;;639187;225;26762;-74
2022/06/24 04:53:29;;;;;;;2.17;1.98;;;20.40;53.50;;;;;;638985;225;26572;-74
2022/06/24 04:55:58;;;;;;;3.15;1.92;;;20.60;53.40;;;;;;638937;225;26546;-74
2022/06/24 04:58:25;;;;;;;2.55;2.35;;;20.50;53.30;;;;;;638872;222;26567;-74
2022/06/24 05:00:53;;;;;;;2.40;2.20;;;20.70;53.20;;;;;;638939;223;26551;-74
2022/06/24 05:03:20;;;;;;;4.47;2.08;;;20.70;53.10;;;;;;638881;225;26900;-74
2022/06/24 05:05:47;;;;;;;2.60;2.33;;;20.80;53.00;;;;;;638893;224;26554;-74
2022/06/24 05:08:15;;;;;;;2.03;1.92;;;21.00;52.80;;;;;;638798;224;27164;-74
2022/06/24 05:10:42;;;;;;;2.45;2.08;;;21.00;52.80;;;;;;638848;224;26782;-74
2022/06/24 05:13:09;;;;;;;2.10;2.00;;;21.10;52.60;;;;;;638573;224;26540;-74
2022/06/24 05:15:37;;;;;;;2.35;2.15;;;21.20;52.70;;;;;;638581;225;27059;-74
2022/06/24 05:18:04;;;;;;;2.00;1.90;;;21.30;52.40;;;;;;638595;224;26519;-74
2022/06/24 05:20:32;;;;;;;2.40;2.05;;;21.40;52.20;;;;;;638684;225;26616;-64
2022/06/24 05:22:59;;;;;;;2.30;2.10;;;21.40;52.20;;;;;;638520;225;26516;-64
2022/06/24 05:25:26;;;;;;;2.35;2.00;;;21.50;52.10;;;;;;638594;223;26502;-64
2022/06/24 05:27:54;;;;;;;2.15;1.98;;;21.60;51.90;;;;;;638541;225;27189;-64
2022/06/24 05:30:21;;;;;;;2.10;2.00;;;21.70;52.00;;;;;;638525;224;26790;-64
2022/06/24 05:32:49;;;;;;;2.50;2.30;;;22.00;51.90;;;;;;638544;224;26522;-64
2022/06/24 05:35:16;;;;;;;2.10;2.00;;;21.90;51.80;;;;;;638571;224;26518;-63
2022/06/24 05:37:43;;;;;;;2.12;2.03;;;22.00;51.50;;;;;;638495;224;26562;-63
2022/06/24 05:40:11;;;;;;;2.00;1.90;;;22.10;51.30;;;;;;638560;225;27194;-63
2022/06/24 05:42:39;;;;;;;2.12;1.75;;;22.30;51.20;;;;;;638561;225;26527;-63
2022/06/24 05:45:07;;;;;;;1.75;1.70;;;22.40;51.20;;;;;;638625;224;27077;-63
2022/06/24 05:47:34;;;;;;;1.90;1.80;;;22.40;51.20;;;;;;639721;223;26547;-63
2022/06/24 05:50:01;;;;;;;1.45;1.45;;;22.60;50.70;;;;;;638566;224;26780;-63
2022/06/24 05:55:02;;;;;;;2.00;1.80;;;22.90;50.20;;;;;;638348;224;26555;-63
2022/06/24 05:57:30;;;;;;;1.48;1.48;;;22.90;50.20;;;;;;638060;225;26520;-63
2022/06/24 05:59:58;;;;;;;1.50;1.40;;;23.10;50.10;;;;;;638021;223;26535;-63
2022/06/24 06:02:26;;;;;;;2.17;2.00;;;23.20;49.60;;;;;;638021;225;26523;-63
2022/06/24 06:04:53;;;;;;;1.90;1.80;;;23.20;49.60;;;;;;637803;224;26510;-63
2022/06/24 06:07:20;;;;;;;2.28;1.83;;;23.30;49.30;;;;;;637576;225;26543;-63
2022/06/24 06:09:47;;;;;;;2.95;1.95;;;23.50;49.60;;;;;;637609;224;26797;-63
2022/06/24 06:12:15;;;;;;;2.25;1.70;;;23.60;49.10;;;;;;637697;225;27227;-63
2022/06/24 06:14:42;;;;;;;2.50;2.30;;;23.80;48.90;;;;;;637688;224;26548;-63
2022/06/24 06:17:10;;;;;;;2.08;1.83;;;23.80;48.80;;;;;;637613;225;26805;-63
2022/06/24 06:19:38;;;;;;;2.40;2.20;;;24.00;48.10;;;;;;637617;224;26585;-63
2022/06/24 06:22:06;;;;;;;3.35;1.92;;;24.10;47.90;;;;;;637519;224;26537;-63
2022/06/24 06:24:33;;;;;;;2.08;1.92;;;24.20;47.50;;;;;;637151;225;26504;-63
2022/06/24 06:27:01;;;;;;;2.55;2.00;;;24.30;47.60;;;;;;637313;224;26528;-64
2022/06/24 06:29:29;;;;;;;1.92;1.70;;;24.30;47.60;;;;;;637306;224;26543;-63
2022/06/24 06:31:56;;;;;;;2.15;2.00;;;24.40;47.70;;;;;;637320;224;27063;-63
2022/06/24 06:34:24;;;;;;;1.80;1.70;;;24.60;47.40;;;;;;637280;225;26513;-63
2022/06/24 06:36:52;;;;;;;1.85;1.75;;;24.70;47.30;;;;;;637341;224;26515;-64
2022/06/24 06:39:20;;;;;;;2.00;1.90;;;24.70;47.00;;;;;;637333;224;26607;-64
2022/06/24 06:41:48;;;;;;;1.75;1.65;;;24.80;47.30;;;;;;637331;224;26515;-64
2022/06/24 06:44:16;;;;;;;1.92;1.75;;;25.00;47.20;;;;;;637280;224;26518;-64
2022/06/24 06:46:44;;;;;;;1.45;1.40;;;25.10;47.40;;;;;;637265;225;27164;-63
2022/06/24 06:49:11;;;;;;;1.83;1.73;;;25.10;46.90;;;;;;637373;225;26812;-64
2022/06/24 06:51:38;;;;;;;1.75;1.65;;;25.20;46.70;;;;;;637459;224;26546;-64
2022/06/24 06:54:05;;;;;;;1.90;1.80;;;25.30;46.60;;;;;;637445;224;26899;-64
2022/06/24 06:56:33;;;;;;;1.77;1.70;;;25.40;46.40;;;;;;643006;223;26600;-65
2022/06/24 06:59:00;;;;;;;1.70;1.60;;;25.50;46.20;;;;;;646714;220;26627;-65
2022/06/24 07:01:27;;;;;;;2.03;1.67;;;25.60;46.30;;;;;;640920;220;26543;-65
2022/06/24 07:03:54;;;;;;;2.00;1.90;;;25.70;46.20;;;;;;642861;221;26575;-65
2022/06/24 07:06:22;;;;;;;1.90;1.80;;;25.70;46.10;;;;;;643434;221;26551;-65
2022/06/24 07:08:49;;;;;;;2.17;1.98;;;25.80;45.60;;;;;;644312;221;26590;-65
2022/06/24 07:11:17;;;;;;;1.80;1.70;;;26.00;45.10;;;;;;641103;221;26506;-64
2022/06/24 07:13:46;;;;;;;2.05;1.95;;;26.00;45.10;;;;;;642698;221;26798;-65
2022/06/24 07:16:13;;;;;;;2.55;2.35;;;26.00;45.30;;;;;;641558;220;26739;-65
2022/06/24 07:18:40;;;;;;;2.20;2.00;;;26.10;45.40;;;;;;641745;221;26601;-65
2022/06/24 07:21:08;;;;;;;2.20;2.00;;;26.20;44.70;;;;;;641953;221;26792;-65
2022/06/24 07:23:35;;;;;;;2.10;1.95;;;26.30;44.50;;;;;;643710;220;26604;-65
2022/06/24 07:26:02;;;;;;;2.00;1.85;;;26.40;44.40;;;;;;644577;221;26786;-65
2022/06/24 07:28:29;;;;;;;2.28;2.10;;;26.40;44.50;;;;;;643397;221;26551;-65
2022/06/24 07:30:56;;;;;;;2.78;2.05;;;26.40;43.80;;;;;;645724;221;26795;-65
2022/06/24 07:33:24;;;;;;;2.40;2.20;;;26.50;44.40;;;;;;642635;221;26569;-65
2022/06/24 07:35:52;;;;;;;2.00;1.90;;;26.70;43.50;;;;;;640846;221;26736;-65
2022/06/24 07:38:19;;;;;;;1.90;1.80;;;26.60;43.40;;;;;;637211;224;26756;-64
2022/06/24 07:40:47;;;;;;;2.37;1.90;;;26.70;43.00;;;;;;643452;221;26527;-64
2022/06/24 07:43:13;;;;;;;2.10;2.00;;;26.70;42.80;;;;;;645229;221;26915;-64
2022/06/24 07:45:40;;;;;;;2.22;2.05;;;26.70;42.70;;;;;;648041;221;26552;-65
2022/06/24 07:48:08;;;;;;;1.92;1.83;;;26.80;42.60;;;;;;645203;221;27090;-66
2022/06/24 07:50:35;;;;;;;2.10;2.00;;;26.90;42.50;;;;;;641734;221;26633;-67
2022/06/24 07:53:02;;;;;;;2.87;2.30;;;26.90;42.20;;;;;;640913;219;26833;-66
2022/06/24 07:58:02;;;;;;;1.92;1.73;;;27.20;41.90;;;;;;639448;221;26599;-63
2022/06/24 08:00:30;;;;;;;1.98;1.85;;;27.30;42.20;;;;;;638854;221;26890;-63
2022/06/24 08:02:57;;;;;;;2.37;2.22;;;27.30;41.70;;;;;;644386;221;26566;-66
2022/06/24 08:05:24;;;;;;;2.15;2.05;;;27.30;41.50;;;;;;645853;221;26790;-64
2022/06/24 08:07:51;;;;;;;2.00;1.83;;;27.30;41.70;;;;;;643243;221;26778;-66
2022/06/24 08:10:18;;;;;;;2.00;1.90;;;27.40;41.50;;;;;;647448;219;26577;-66
2022/06/24 08:12:46;;;;;;;2.33;2.12;;;27.50;41.30;;;;;;642038;220;26780;-63
2022/06/24 08:15:16;;;;;;;2.08;1.98;;;27.60;41.00;;;;;;639513;220;26502;-63
2022/06/24 08:17:41;;;;;;;1.90;1.80;;;27.60;40.60;;;;;;639318;218;26566;-62
2022/06/24 08:20:10;;;;;;;1.87;1.77;;;27.70;40.30;;;;;;638526;221;26792;-65
2022/06/24 08:22:37;;;;;;;1.90;1.80;;;27.70;40.40;;;;;;642434;221;26508;-64
2022/06/24 08:25:05;;;;;;;2.10;2.00;;;27.80;40.00;;;;;;644663;221;26777;-63
2022/06/24 08:27:32;;;;;;;2.37;1.80;;;27.80;40.50;;;;;;642878;221;26516;-63
2022/06/24 08:29:59;;;;;;;1.80;1.70;;;27.90;40.20;;;;;;645783;218;26844;-63
2022/06/24 08:32:26;;;;;;;1.75;1.65;;;27.90;40.10;;;;;;640650;221;26550;-63
2022/06/24 08:34:53;;;;;;;1.58;1.48;;;27.90;39.60;;;;;;646676;221;26773;-63
2022/06/24 08:37:21;;;;;;;1.80;1.70;;;28.00;39.90;;;;;;641015;221;27189;-63
2022/06/24 08:39:48;;;;;;;1.62;1.52;;;28.00;39.50;;;;;;637596;223;26587;-64
2022/06/24 08:42:16;;;;;;;2.03;1.33;;;27.90;39.00;;;;;;638929;224;26519;-62
2022/06/24 08:44:43;;;;;;;1.95;1.85;;;28.00;39.30;;;;;;642655;221;26555;-64
2022/06/24 08:47:13;;;;;;;3.03;1.90;;;28.00;39.00;;;;;;643841;221;26792;-68
2022/06/24 08:49:40;;;;;;;1.70;1.55;;;28.00;39.10;;;;;;638582;224;26543;-65
2022/06/24 08:52:07;;;;;;;3.30;1.73;;;28.10;39.80;;;;;;638757;221;26566;-65
2022/06/24 08:54:35;;;;;;;1.55;1.40;;;28.10;40.60;;;;;;638760;225;26504;-66
2022/06/24 08:57:02;;;;;;;1.73;1.62;;;28.10;40.00;;;;;;638602;225;26757;-67
2022/06/24 08:59:29;;;;;;;1.67;1.58;;;28.10;40.40;;;;;;641932;221;26795;-67
2022/06/24 09:01:57;;;;;;;6.85;2.72;;;28.10;40.10;;;;;;639663;221;26571;-64
2022/06/24 09:04:24;;;;;;;3.83;2.00;;;28.10;40.40;;;;;;637348;225;26752;-65
2022/06/24 09:06:51;;;;;;;2.03;1.83;;;28.10;40.40;;;;;;638496;221;26508;-66
2022/06/24 09:09:22;;;;;;;1.90;1.80;;;28.20;40.00;;;;;;642041;221;27247;-65
2022/06/24 09:11:49;;;;;;;1.70;1.60;;;28.20;39.40;;;;;;639723;221;26503;-65
2022/06/24 09:14:17;;;;;;;1.67;1.58;;;28.10;39.40;;;;;;641884;221;26529;-65
2022/06/24 09:16:45;;;;;;;1.87;1.55;;;28.10;39.30;;;;;;638102;222;26507;-67
2022/06/24 09:19:14;;;;;;;1.60;1.50;;;28.10;38.70;;;;;;638536;221;26552;-66
2022/06/24 09:21:41;;;;;;;1.60;1.50;;;28.10;38.90;;;;;;639114;220;26812;-65
2022/06/24 09:24:07;;;;;;;1.55;1.45;;;28.20;39.00;;;;;;650014;220;26561;-65
2022/06/24 09:26:35;;;;;;;1.48;1.40;;;28.20;39.20;;;;;;642462;220;26765;-65
2022/06/24 09:29:03;;;;;;;1.40;1.40;;;28.20;38.50;;;;;;639782;221;26616;-69
2022/06/24 09:31:31;;;;;;;1.77;1.67;;;28.20;38.50;;;;;;645911;219;26652;-69
2022/06/24 09:34:13;;;;;;;1.40;1.40;;;28.20;38.20;;;;;;639227;224;26559;-69
2022/06/24 09:36:41;;;;;;;2.25;1.60;;;28.20;37.90;;;;;;647057;221;26616;-69
2022/06/24 09:39:11;;;;;;;1.50;1.45;;;28.20;38.20;;;;;;641902;221;26598;-71
2022/06/24 09:41:42;;;;;;;2.05;1.37;;;28.20;38.20;;;;;;644203;221;26639;-72
2022/06/24 09:44:10;;;;;;;1.60;1.50;;;28.30;38.30;;;;;;638764;221;26608;-72
2022/06/24 09:46:38;;;;;;;1.40;1.40;;;28.30;37.70;;;;;;638925;221;26559;-69
2022/06/24 09:49:05;;;;;;;18.15;4.93;;;28.30;37.70;;;;;;643509;221;26563;-71
2022/06/24 09:51:32;;;;;;;41.88;9.73;;;28.30;37.50;;;;;;638807;221;26599;-68
2022/06/24 09:54:00;;;;;;;53.08;13.00;;;28.30;37.40;;;;;;647258;221;26556;-70
2022/06/24 09:56:28;;;;;;;6.68;2.30;;;28.30;37.20;;;;;;646820;221;26771;-67
2022/06/24 10:01:28;;;;;;;1.50;1.40;;;28.30;36.80;;;;;;638746;224;26846;-67
2022/06/24 10:03:55;;;;;;;1.40;1.40;;;28.30;36.60;;;;;;642124;221;26570;-70
2022/06/24 10:06:23;;;;;;;1.35;1.33;;;28.30;35.60;;;;;;641841;221;26532;-67
2022/06/24 10:08:50;;;;;;;25.55;7.25;;;28.30;35.90;;;;;;641884;219;26545;-67
2022/06/24 10:11:18;;;;;;;2.10;1.90;;;28.30;36.20;;;;;;646707;221;26587;-68
2022/06/24 10:13:46;;;;;;;1.40;1.30;;;28.30;35.50;;;;;;639557;221;26519;-67
2022/06/24 10:16:14;;;;;;;1.60;1.50;;;28.30;35.50;;;;;;639133;221;26547;-69
2022/06/24 10:18:41;;;;;;;1.30;1.30;;;28.30;35.50;;;;;;649177;221;26573;-67
2022/06/24 10:21:09;;;;;;;91.93;19.58;;;28.40;35.30;;;;;;639566;221;26567;-68
2022/06/24 10:23:39;;;;;;;47.92;13.35;;;28.50;35.30;;;;;;638675;221;26601;-72
2022/06/24 10:26:09;;;;;;;44.00;11.85;;;28.50;35.90;;;;;;638815;221;26564;-71
2022/06/24 10:28:52;;;;;;;37.78;9.20;;;28.50;36.70;;;;;;646348;221;26537;-74
2022/06/24 10:31:19;;;;;;;3.50;2.20;;;28.60;35.70;;;;;;637533;221;26585;-70
2022/06/24 10:33:47;;;;;;;3.72;2.10;;;28.70;36.20;;;;;;644129;220;26559;-68
2022/06/24 10:36:14;;;;;;;1.35;1.35;;;28.70;36.30;;;;;;636769;224;26531;-68
2022/06/24 10:38:42;;;;;;;1.50;1.40;;;28.70;36.70;;;;;;636339;224;26606;-68
2022/06/24 10:41:11;;;;;;;1.40;1.20;;;28.80;36.50;;;;;;639136;225;26568;-68
2022/06/24 10:43:39;;;;;;;4.80;2.33;;;28.80;36.40;;;;;;640872;221;26488;-69
2022/06/24 10:46:18;;;;;;;1.60;1.50;;;28.90;36.30;;;;;;645803;220;26539;-69
2022/06/24 10:49:01;;;;;;;1.80;1.30;;;29.00;36.20;;;;;;645734;218;26566;-69
2022/06/24 10:51:28;;;;;;;21.62;7.07;;;29.00;36.30;;;;;;649454;221;26566;-69
2022/06/24 10:54:15;;;;;;;6.37;2.58;;;29.00;36.60;;;;;;643141;221;26508;-68
2022/06/24 10:56:48;;;;;;;1.10;1.10;;;29.10;36.40;;;;;;641990;221;26555;-69
2022/06/24 10:59:18;;;;;;;1.48;1.45;;;29.10;36.40;;;;;;639175;221;26534;-70
2022/06/24 11:01:43;;;;;;;1.67;1.20;;;29.20;36.70;;;;;;641346;221;26833;-70
2022/06/24 11:04:12;;;;;;;1.37;1.33;;;29.30;37.00;;;;;;638565;224;26575;-70
2022/06/24 11:06:39;;;;;;;1.20;1.20;;;29.30;37.20;;;;;;639083;221;26825;-70
2022/06/24 11:09:06;;;;;;;1.25;1.15;;;29.40;36.30;;;;;;641994;221;26587;-70
2022/06/24 11:11:34;;;;;;;0.90;0.90;;;29.40;36.70;;;;;;643124;221;26581;-70
2022/06/24 11:14:01;;;;;;;1.35;1.33;;;29.40;36.00;;;;;;641467;221;27226;-70
2022/06/24 11:16:28;;;;;;;1.10;1.10;;;29.40;35.80;;;;;;643856;220;26548;-71
2022/06/24 11:18:55;;;;;;;1.30;1.30;;;29.50;36.40;;;;;;650382;221;26808;-69
2022/06/24 11:21:22;;;;;;;1.27;1.27;;;29.50;37.00;;;;;;642808;221;26584;-70
2022/06/24 11:23:50;;;;;;;1.33;1.23;;;29.60;36.70;;;;;;643308;221;27228;-69
2022/06/24 11:26:17;;;;;;;1.35;1.25;;;29.60;35.80;;;;;;640671;221;26546;-70
2022/06/24 11:28:50;;;;;;;1.45;1.40;;;29.70;36.30;;;;;;645683;221;26509;-70
2022/06/24 11:31:19;;;;;;;1.45;1.33;;;29.80;36.20;;;;;;648605;221;26767;-72
2022/06/24 11:33:46;;;;;;;1.40;1.40;;;29.90;36.10;;;;;;643296;221;26536;-71
2022/06/24 11:36:14;;;;;;;1.48;1.37;;;30.00;36.70;;;;;;645290;221;26560;-70
2022/06/24 11:38:49;;;;;;;1.95;1.70;;;30.00;36.70;;;;;;639477;221;26543;-70
2022/06/24 11:41:24;;;;;;;1.42;1.42;;;30.10;36.00;;;;;;643561;221;26544;-71
2022/06/24 11:43:52;;;;;;;4.05;1.85;;;30.20;36.00;;;;;;635604;223;26587;-73
2022/06/24 11:46:20;;;;;;;8.77;2.55;;;30.40;35.90;;;;;;643341;220;26511;-73
2022/06/24 11:48:54;;;;;;;3.12;1.65;;;30.70;34.90;;;;;;643554;220;26894;-71
2022/06/24 11:51:21;;;;;;;1.55;1.55;;;30.60;34.80;;;;;;641449;220;26522;-77
2022/06/24 11:53:57;;;;;;;1.50;1.40;;;31.10;35.40;;;;;;642791;221;26593;-73
2022/06/24 11:56:29;;;;;;;1.30;1.30;;;31.40;34.20;;;;;;641835;220;26558;-73
2022/06/24 11:58:55;;;;;;;1.73;1.62;;;31.70;34.00;;;;;;643511;220;26608;-74
2022/06/24 12:01:23;;;;;;;2.20;2.00;;;32.20;33.20;;;;;;641519;220;26636;-74
2022/06/24 12:03:51;;;;;;;1.50;1.50;;;32.20;33.20;;;;;;643747;221;26564;-72
2022/06/24 12:06:18;;;;;;;1.30;1.30;;;32.50;33.10;;;;;;640905;221;26573;-75
2022/06/24 12:08:46;;;;;;;2.62;2.20;;;32.70;31.80;;;;;;639181;221;26610;-75
2022/06/24 12:11:18;;;;;;;1.67;1.40;;;32.90;31.40;;;;;;638348;221;26524;-74
2022/06/24 12:13:57;;;;;;;1.15;1.15;;;32.80;31.40;;;;;;647092;221;26511;-73
2022/06/24 12:16:27;;;;;;;1.42;1.33;;;33.10;32.10;;;;;;638944;221;27334;-74
2022/06/24 12:18:54;;;;;;;1.30;1.30;;;33.30;31.20;;;;;;639154;221;26595;-72
2022/06/24 12:21:24;;;;;;;1.20;1.20;;;33.40;30.60;;;;;;637957;221;26847;-72
2022/06/24 12:23:51;;;;;;;1.30;1.30;;;33.60;30.50;;;;;;640577;221;26792;-72
2022/06/24 12:26:19;;;;;;;1.30;1.20;;;33.80;30.30;;;;;;640454;221;26556;-72
2022/06/24 12:28:46;;;;;;;1.45;1.35;;;34.00;30.20;;;;;;640777;218;26796;-72
2022/06/24 12:31:13;;;;;;;1.33;1.23;;;34.20;31.10;;;;;;638682;221;26599;-72
2022/06/24 12:33:53;;;;;;;1.08;1.08;;;34.30;30.90;;;;;;640345;221;26963;-72
2022/06/24 12:36:20;;;;;;;1.05;1.05;;;34.50;31.00;;;;;;644782;221;26540;-72
2022/06/24 12:39:04;;;;;;;1.10;1.10;;;34.50;30.60;;;;;;646678;221;26569;-72
2022/06/24 12:41:31;;;;;;;1.20;1.10;;;34.90;30.20;;;;;;642652;221;26494;-72
2022/06/24 12:43:59;;;;;;;1.10;1.10;;;35.10;30.70;;;;;;641333;221;26784;-73
2022/06/24 12:46:26;;;;;;;2.47;2.20;;;35.30;29.60;;;;;;639045;221;26544;-70
2022/06/24 12:51:26;;;;;;;1.20;1.20;;;36.10;29.20;;;;;;640857;221;27258;-70
2022/06/24 12:53:54;;;;;;;1.20;1.10;;;36.10;28.50;;;;;;648873;220;26485;-72
2022/06/24 12:56:21;;;;;;;2.55;1.30;;;36.10;28.10;;;;;;639908;221;26810;-72
2022/06/24 12:58:51;;;;;;;1.37;1.27;;;36.20;27.90;;;;;;642640;222;26600;-74
2022/06/24 13:01:18;;;;;;;1.20;1.20;;;36.20;27.60;;;;;;639996;221;26602;-72
2022/06/24 13:03:45;;;;;;;1.20;1.20;;;36.70;27.50;;;;;;645303;219;27188;-73
2022/06/24 13:06:12;;;;;;;8.18;3.10;;;37.10;28.10;;;;;;641025;221;26565;-75